• Join FlightAware (Why Join?)
  • Login
  • US Flag 
05:32AM EST


 

Airport Tracker/Info


-or-


 

Live Flight TrackerFlight Track Log ✈ N2162K ✈ 13-Aug-2013 ✈ KDNV - KIOW

Flight Track Log - Related Links

Times and Time Zones

All times are in EDT time to prevent confusion due to time zone crossing. See the N2162K flight status page for this flight to view local times or setup timezone preferences in your user account.

Time Position Orientation Groundspeed Altitude Reporting Facility
EDT Latitude Longitude Course Direction KTS MPH feet Rate Location/Type
12:21PM 40.6456 -88.5025 297° West 132 152 6,600  Level Chicago Center
12:22PM 40.6625 -88.5569 292° West 135 155 6,600 -60 Level Chicago Center
12:23PM 40.6781 -88.6036 294° West 136 157 6,500  Descending Chicago Center
12:24PM 40.6933 -88.6461 295° West 133 153 6,600  Climbing Chicago Center
12:25PM 40.7083 -88.6906 294° West 133 153 6,500  Descending Chicago Center
12:26PM 40.2715 -87.7805 297° West  Level Estimated
12:26PM 40.7225 -88.7375 292° West 134 154 6,600  Level Chicago Center
12:27PM 40.2859 -87.8176 297° West  Level Estimated
12:27PM 40.7369 -88.7903 290° West 133 153 6,500  Level Chicago Center
12:29PM 40.7531 -88.8331 296° West 130 150 6,500  Level Chicago Center
12:30PM 40.7658 -88.8783 290° West 132 152 6,600  Climbing Chicago Center
12:31PM 40.7792 -88.9233 291° West 131 151 6,600 -60 Level Chicago Center
12:32PM 40.7939 -88.9664 294° West 130 150 6,500  Descending Chicago Center
12:33PM 40.8106 -89.0086 298° West 129 148 6,600 -60 Climbing Chicago Center
12:39PM 40.9040 -89.2760 298° West 130 150 6,400 -60 Descending FlightAware
12:39PM 40.9080 -89.2870 296° West 131 151 6,400  Level FlightAware
12:39PM 40.9130 -89.3030 292° West 131 151 6,400 180 Level FlightAware
12:40PM 40.9189 -89.3225 292° West 130 150 6,600 120 Climbing Chicago Center
12:41PM 40.9347 -89.3753 292° West 130 150 6,600 -60 Level Chicago Center
12:42PM 40.9508 -89.4189 296° West 133 153 6,500  Descending Chicago Center
12:43PM 40.9664 -89.4617 296° West 128 147 6,600  Climbing Chicago Center
12:44PM 40.9814 -89.5058 294° West 132 152 6,600 -60 Level Chicago Center
12:45PM 40.9972 -89.5489 296° West 133 153 6,500 -60 Descending Chicago Center
12:46PM 41.0158 -89.6014 295° West 132 152 6,500  Level Chicago Center
12:47PM 41.0300 -89.6467 293° West 134 154 6,500  Level Chicago Center
12:48PM 41.0431 -89.6922 291° West 131 151 6,500  Level Chicago Center
12:49PM 41.0583 -89.7353 295° West 129 148 6,500 -60 Level Chicago Center
12:50PM 41.0742 -89.7797 295° West 136 157 6,400  Descending Chicago Center
12:51PM 41.0892 -89.8233 295° West 129 148 6,500  Climbing Chicago Center
12:52PM 41.1083 -89.8756 296° West 134 154 6,500  Level Chicago Center
12:53PM 41.1233 -89.9194 294° West 128 147 6,500  Level Chicago Center
12:54PM 41.1364 -89.9644 291° West 131 151 6,600  Climbing Chicago Center
12:55PM 41.1508 -90.0094 293° West 133 153 6,600 -60 Level Chicago Center
12:56PM 41.1661 -90.0553 294° West 138 159 6,500 -60 Descending Chicago Center
12:57PM 41.1814 -90.1008 294° West 134 154 6,500  Level Chicago Center
12:59PM 41.1994 -90.1558 294° West 137 158 6,500  Level Chicago Center
01:00PM 41.2153 -90.2008 295° West 134 154 6,500  Level Chicago Center
01:01PM 41.2306 -90.2450 295° West 131 151 6,500 -60 Level Chicago Center
01:02PM 41.2439 -90.2908 291° West 140 161 6,400  Descending Chicago Center
01:03PM 41.2592 -90.3386 293° West 135 155 6,500 60 Climbing Chicago Center
01:04PM 41.2728 -90.3844 292° West 135 155 6,600  Climbing Chicago Center
01:05PM 41.2894 -90.4408 291° West 138 159 6,500  Descending Chicago Center
01:06PM 41.3042 -90.4889 292° West 136 157 6,600 -120 Climbing Chicago Center
01:06PM 41.3139 -90.5186 294° West 143 165 6,400 -60 Descending Chicago Center
01:08PM 41.3344 -90.5806 294° West 136 157 6,500  Climbing Chicago Center
01:09PM 41.3492 -90.6269 293° West 134 154 6,500  Level Chicago Center
01:10PM 41.3669 -90.6808 294° West 134 154 6,500  Level Chicago Center
01:11PM 41.3825 -90.7267 294° West 137 158 6,500 -300 Level Chicago Center
01:12PM 41.3969 -90.7739 292° West 138 159 6,000 -660 Descending Chicago Center
01:13PM 41.4147 -90.8233 296° West 143 165 5,200 -840 Descending Chicago Center
01:14PM 41.4328 -90.8786 294° West 155 178 4,400 -780 Descending Chicago Center
01:15PM 41.4503 -90.9297 295° West 154 177 3,700 -420 Descending Chicago Center
01:16PM 41.4667 -90.9839 292° West 155 178 3,500 -360 Descending Chicago Center
01:18PM 41.4886 -91.0633 290° West 135 155 2,900 -420 Descending Chicago Center
01:20PM 41.5172 -91.1852 290° West  Level FlightAware Approximate
01:27PM 41.6333 -91.5333 304° West  Level FlightAware Approximate
01:28PM 41.6398 -91.5481 304° West  Level Estimated
01:29PM 41.6398 -91.5481 304° West  Level Estimated
01:30PM 41.6398 -91.5481 304° West  Level Estimated
01:31PM 41.6398 -91.5481 304° West  Level Estimated
01:32PM 41.6398 -91.5481 304° West  Level Estimated
01:33PM 41.6398 -91.5481 304° West  Level Estimated
01:34PM 41.6398 -91.5481 304° West  Level Estimated
01:35PM 41.6398 -91.5481 304° West  Level Estimated
01:36PM 41.6398 -91.5481 304° West  Level Estimated
01:37PM 41.6398 -91.5481 304° West  Level Estimated
01:38PM 41.6398 -91.5481 304° West  Level Estimated
01:39PM 41.6398 -91.5481 304° West  Level Estimated
01:40PM 41.6398 -91.5481 304° West  Level Estimated